createdAt,value
2017-05-12T00:00:19.284Z,16.91
2017-05-12T00:00:47.596Z,16.91
2017-05-12T00:01:15.929Z,16.98
2017-05-12T00:01:44.175Z,17.01
2017-05-12T00:02:12.479Z,16.98
2017-05-12T00:02:40.850Z,16.95
2017-05-12T00:03:09.166Z,16.94
2017-05-12T00:03:37.605Z,16.97
2017-05-12T00:04:05.945Z,16.94
2017-05-12T00:04:34.219Z,16.92
2017-05-12T00:05:45.694Z,16.84
2017-05-12T00:06:13.963Z,16.83
2017-05-12T00:06:42.190Z,16.99
2017-05-12T00:07:10.432Z,16.92
2017-05-12T00:07:38.685Z,16.84
2017-05-12T00:08:06.988Z,16.98
2017-05-12T00:08:35.272Z,16.97
2017-05-12T00:09:03.674Z,16.88
2017-05-12T00:09:32.014Z,16.94
2017-05-12T00:10:00.263Z,16.91
2017-05-12T00:10:28.629Z,16.88
2017-05-12T00:11:40.107Z,16.83
2017-05-12T00:12:08.484Z,16.8
2017-05-12T00:12:36.798Z,16.88
2017-05-12T00:13:05.033Z,16.88
2017-05-12T00:13:33.283Z,16.91
2017-05-12T00:14:01.673Z,16.88
2017-05-12T00:14:30.044Z,16.88
2017-05-12T00:14:58.182Z,16.9
2017-05-12T00:15:26.616Z,16.84
2017-05-12T00:15:54.951Z,16.84
2017-05-12T00:16:23.227Z,16.88
2017-05-12T00:17:34.610Z,16.76
2017-05-12T00:18:02.980Z,16.76
2017-05-12T00:18:31.201Z,16.74
2017-05-12T00:18:59.437Z,16.74
2017-05-12T00:19:27.783Z,16.76
2017-05-12T00:19:55.895Z,16.79
2017-05-12T00:20:24.267Z,16.8
2017-05-12T00:20:52.670Z,16.76
2017-05-12T00:21:21.107Z,16.82
2017-05-12T00:21:49.448Z,16.76
2017-05-12T00:22:17.726Z,16.74
2017-05-12T00:23:29.106Z,16.74
2017-05-12T00:23:57.306Z,16.79
2017-05-12T00:24:25.620Z,16.79
2017-05-12T00:24:53.864Z,16.76
2017-05-12T00:25:22.204Z,16.76
2017-05-12T00:25:50.513Z,16.79
2017-05-12T00:26:18.788Z,16.73
2017-05-12T00:26:47.193Z,16.76
2017-05-12T00:27:15.630Z,16.82
2017-05-12T00:27:43.876Z,16.79
2017-05-12T00:28:12.150Z,16.77
2017-05-12T00:29:23.618Z,16.82
2017-05-12T00:29:51.982Z,16.77
2017-05-12T00:30:20.299Z,16.79
2017-05-12T00:30:48.541Z,16.7
2017-05-12T00:31:16.883Z,16.73
2017-05-12T00:31:45.184Z,16.76
2017-05-12T00:32:13.560Z,16.73
2017-05-12T00:32:41.963Z,16.73
2017-05-12T00:33:10.395Z,16.67
2017-05-12T00:33:38.542Z,16.7
2017-05-12T00:34:06.815Z,16.67
2017-05-12T00:35:18.103Z,16.73
2017-05-12T00:35:46.404Z,16.7
2017-05-12T00:36:14.703Z,16.64
2017-05-12T00:36:42.943Z,16.67
2017-05-12T00:37:11.289Z,16.7
2017-05-12T00:37:39.680Z,16.69
2017-05-12T00:38:07.958Z,16.69
2017-05-12T00:38:36.363Z,16.67
2017-05-12T00:39:04.710Z,16.69
2017-05-12T00:39:32.957Z,16.65
2017-05-12T00:40:01.228Z,16.67
2017-05-12T00:41:12.609Z,16.57
2017-05-12T00:41:40.985Z,16.55
2017-05-12T00:42:09.306Z,16.55
2017-05-12T00:42:37.551Z,16.59
2017-05-12T00:43:05.806Z,16.52
2017-05-12T00:43:34.197Z,16.51
2017-05-12T00:44:02.576Z,16.55
2017-05-12T00:44:30.981Z,16.57
2017-05-12T00:44:59.326Z,16.57
2017-05-12T00:45:27.663Z,16.64
2017-05-12T00:45:56.024Z,16.55
2017-05-12T00:47:07.316Z,16.61
2017-05-12T00:47:35.676Z,16.57
2017-05-12T00:48:03.996Z,16.59
2017-05-12T00:48:32.061Z,16.49
2017-05-12T00:49:00.310Z,16.51
2017-05-12T00:49:28.702Z,16.49
2017-05-12T00:49:56.981Z,16.58
2017-05-12T00:50:25.286Z,16.54
2017-05-12T00:50:53.625Z,16.49
2017-05-12T00:51:21.867Z,16.58
2017-05-12T00:51:50.227Z,16.51
2017-05-12T00:53:01.609Z,16.59
2017-05-12T00:53:29.980Z,16.49
2017-05-12T00:53:58.202Z,16.46
2017-05-12T00:54:26.351Z,16.44
2017-05-12T00:54:54.693Z,16.49
2017-05-12T00:55:22.995Z,16.46
2017-05-12T00:55:51.275Z,16.44
2017-05-12T00:56:19.681Z,16.47
2017-05-12T00:56:48.115Z,16.52
2017-05-12T00:57:16.355Z,16.58
2017-05-12T00:57:44.723Z,16.51
2017-05-12T00:58:56.011Z,16.52
2017-05-12T00:59:24.379Z,16.52
2017-05-12T00:59:52.784Z,16.44
2017-05-12T01:00:21.024Z,16.46
2017-05-12T01:00:49.179Z,16.46
2017-05-12T01:01:17.568Z,16.51
2017-05-12T01:01:45.847Z,16.57
2017-05-12T01:02:14.255Z,16.54
2017-05-12T01:02:42.690Z,16.55
2017-05-12T01:03:10.931Z,16.47
2017-05-12T01:03:39.206Z,16.54
2017-05-12T01:04:50.676Z,16.49
2017-05-12T01:05:19.054Z,16.47
2017-05-12T01:05:47.467Z,16.52
2017-05-12T01:06:15.714Z,16.46
2017-05-12T01:06:44.059Z,16.43
2017-05-12T01:07:12.354Z,16.47
2017-05-12T01:07:40.629Z,16.43
2017-05-12T01:08:08.941Z,16.46
2017-05-12T01:08:37.385Z,16.43
2017-05-12T01:09:05.723Z,16.39
2017-05-12T01:09:34.093Z,16.42
2017-05-12T01:10:45.572Z,16.47
2017-05-12T01:11:13.938Z,16.46
2017-05-12T01:11:42.161Z,16.42
2017-05-12T01:12:10.496Z,16.49
2017-05-12T01:12:38.745Z,16.42
2017-05-12T01:13:07.052Z,16.47
2017-05-12T01:13:35.420Z,16.44
2017-05-12T01:14:03.830Z,16.47
2017-05-12T01:14:32.171Z,16.39
2017-05-12T01:15:00.499Z,16.43
2017-05-12T01:15:28.802Z,16.46
2017-05-12T01:16:40.252Z,16.44
2017-05-12T01:17:08.528Z,16.44
2017-05-12T01:17:36.844Z,16.47
2017-05-12T01:18:05.088Z,16.44
2017-05-12T01:18:33.431Z,16.42
2017-05-12T01:19:01.647Z,16.43
2017-05-12T01:19:30.016Z,16.46
2017-05-12T01:19:58.330Z,16.43
2017-05-12T01:20:26.676Z,16.44
2017-05-12T01:20:55.009Z,16.42
2017-05-12T01:21:23.376Z,16.43
2017-05-12T01:22:34.847Z,16.44
2017-05-12T01:23:03.223Z,16.49
2017-05-12T01:23:31.541Z,16.42
2017-05-12T01:23:59.595Z,16.54
2017-05-12T01:24:27.848Z,16.44
2017-05-12T01:24:56.242Z,16.51
2017-05-12T01:25:24.514Z,16.44
2017-05-12T01:25:52.817Z,16.46
2017-05-12T01:26:21.252Z,16.47
2017-05-12T01:26:49.592Z,16.4
2017-05-12T01:27:17.875Z,16.44
2017-05-12T01:28:29.347Z,16.44
2017-05-12T01:28:57.627Z,16.43
2017-05-12T01:29:25.851Z,16.46
2017-05-12T01:29:54.090Z,16.43
2017-05-12T01:30:22.255Z,16.39
2017-05-12T01:30:50.648Z,16.47
2017-05-12T01:31:18.828Z,16.43
2017-05-12T01:31:47.184Z,16.43
2017-05-12T01:32:15.572Z,16.43
2017-05-12T01:32:43.720Z,16.37
2017-05-12T01:33:11.998Z,16.43
2017-05-12T01:34:23.474Z,16.37
2017-05-12T01:34:51.749Z,16.42
2017-05-12T01:35:20.154Z,16.34
2017-05-12T01:35:48.395Z,16.44
2017-05-12T01:36:16.557Z,16.47
2017-05-12T01:36:44.859Z,16.42
2017-05-12T01:37:13.137Z,16.47
2017-05-12T01:37:41.540Z,16.42
2017-05-12T01:38:09.972Z,16.4
2017-05-12T01:38:38.311Z,16.42
2017-05-12T01:39:06.678Z,16.42
2017-05-12T01:40:18.059Z,16.46
2017-05-12T01:40:46.429Z,16.46
2017-05-12T01:41:14.742Z,16.43
2017-05-12T01:41:42.886Z,16.43
2017-05-12T01:42:11.232Z,16.44
2017-05-12T01:42:39.626Z,16.44
2017-05-12T01:43:07.913Z,16.4
2017-05-12T01:43:36.228Z,16.47
2017-05-12T01:44:04.666Z,16.49
2017-05-12T01:44:33.003Z,16.43
2017-05-12T01:45:01.378Z,16.47
2017-05-12T01:46:12.853Z,16.43
2017-05-12T01:46:41.127Z,16.51
2017-05-12T01:47:09.533Z,16.58
2017-05-12T01:47:37.678Z,16.61
2017-05-12T01:48:06.030Z,16.46
2017-05-12T01:48:34.326Z,16.49
2017-05-12T01:49:02.695Z,16.42
2017-05-12T01:49:31.006Z,16.42
2017-05-12T01:49:59.343Z,16.47
2017-05-12T01:50:27.600Z,16.44
2017-05-12T01:50:55.877Z,16.44
2017-05-12T01:52:07.347Z,16.44
2017-05-12T01:52:35.629Z,16.49
2017-05-12T01:53:03.854Z,16.47
2017-05-12T01:53:32.189Z,16.47
2017-05-12T01:54:00.537Z,16.51
2017-05-12T01:54:28.841Z,16.51
2017-05-12T01:54:57.203Z,16.51
2017-05-12T01:55:25.515Z,16.51
2017-05-12T01:55:53.950Z,16.46
2017-05-12T01:56:22.288Z,16.46
2017-05-12T01:56:50.558Z,16.47
2017-05-12T01:58:01.943Z,16.54
2017-05-12T01:58:30.137Z,16.42
2017-05-12T01:58:58.543Z,16.49
2017-05-12T01:59:26.793Z,16.49
2017-05-12T01:59:55.138Z,16.42
2017-05-12T02:00:23.530Z,16.44
2017-05-12T02:00:51.819Z,16.47
2017-05-12T02:01:20.129Z,16.46
2017-05-12T02:01:48.564Z,16.47
2017-05-12T02:02:16.809Z,16.43
2017-05-12T02:02:45.178Z,16.42
2017-05-12T02:03:56.557Z,16.47
2017-05-12T02:04:24.921Z,16.39
2017-05-12T02:04:53.142Z,16.46
2017-05-12T02:05:21.385Z,16.39
2017-05-12T02:05:49.636Z,16.42
2017-05-12T02:06:18.032Z,16.33
2017-05-12T02:06:46.405Z,16.28
2017-05-12T02:07:14.806Z,16.39
2017-05-12T02:07:43.094Z,16.37
2017-05-12T02:08:11.436Z,16.39
2017-05-12T02:08:39.803Z,16.37
2017-05-12T02:09:51.181Z,16.43
2017-05-12T02:10:19.546Z,16.34
2017-05-12T02:10:47.774Z,16.47
2017-05-12T02:11:16.019Z,16.46
2017-05-12T02:11:44.363Z,16.44
2017-05-12T02:12:12.661Z,16.49
2017-05-12T02:12:41.029Z,16.46
2017-05-12T02:13:09.256Z,16.43
2017-05-12T02:13:37.689Z,16.37
2017-05-12T02:14:06.024Z,16.4
2017-05-12T02:14:34.385Z,16.37
2017-05-12T02:15:45.770Z,16.43
2017-05-12T02:16:14.146Z,16.42
2017-05-12T02:16:42.461Z,16.29
2017-05-12T02:17:10.791Z,16.32
2017-05-12T02:17:39.138Z,16.37
2017-05-12T02:18:07.338Z,16.33
2017-05-12T02:18:35.709Z,16.33
2017-05-12T02:19:04.112Z,16.33
2017-05-12T02:19:32.364Z,16.28
2017-05-12T02:20:00.608Z,16.28
2017-05-12T02:20:28.884Z,16.29
2017-05-12T02:21:40.263Z,16.32
2017-05-12T02:22:08.541Z,16.22
2017-05-12T02:22:36.848Z,16.29
2017-05-12T02:23:05.088Z,16.26
2017-05-12T02:23:33.341Z,16.24
2017-05-12T02:24:01.550Z,16.21
2017-05-12T02:24:29.825Z,16.17
2017-05-12T02:24:58.228Z,16.18
2017-05-12T02:25:26.569Z,16.14
2017-05-12T02:25:54.904Z,16.21
2017-05-12T02:26:23.178Z,16.14
2017-05-12T02:27:34.649Z,16.18
2017-05-12T02:28:02.929Z,16.28
2017-05-12T02:28:31.244Z,16.17
2017-05-12T02:28:59.483Z,16.17
2017-05-12T02:29:27.548Z,16.14
2017-05-12T02:29:55.842Z,16.21
2017-05-12T02:30:24.212Z,16.24
2017-05-12T02:30:52.615Z,16.22
2017-05-12T02:31:20.953Z,16.22
2017-05-12T02:31:49.107Z,16.21
2017-05-12T02:32:17.294Z,16.18
2017-05-12T02:33:28.764Z,16.22
2017-05-12T02:33:57.396Z,16.22
2017-05-12T02:34:25.705Z,16.24
2017-05-12T02:34:53.952Z,16.24
2017-05-12T02:35:22.292Z,16.22
2017-05-12T02:35:50.596Z,16.14
2017-05-12T02:36:18.962Z,16.22
2017-05-12T02:36:47.366Z,16.18
2017-05-12T02:37:15.799Z,16.22
2017-05-12T02:37:44.043Z,16.18
2017-05-12T02:38:12.220Z,16.14
2017-05-12T02:39:23.513Z,16.14
2017-05-12T02:39:51.889Z,16.14
2017-05-12T02:40:20.301Z,16.1
2017-05-12T02:40:48.541Z,16.16
2017-05-12T02:41:16.890Z,16.1
2017-05-12T02:41:45.283Z,16.13
2017-05-12T02:42:13.654Z,16.14
2017-05-12T02:42:42.058Z,16.16
2017-05-12T02:43:10.402Z,16.06
2017-05-12T02:43:38.742Z,16.09
2017-05-12T02:44:07.104Z,16.08
2017-05-12T02:45:18.394Z,16.14
2017-05-12T02:45:46.765Z,16.13
2017-05-12T02:46:15.076Z,16.09
2017-05-12T02:46:43.314Z,16.02
2017-05-12T02:47:11.568Z,16.09
2017-05-12T02:47:39.869Z,16
2017-05-12T02:48:08.244Z,16.06
2017-05-12T02:48:36.545Z,16.13
2017-05-12T02:49:04.979Z,16.03
2017-05-12T02:49:33.225Z,16.06
2017-05-12T02:50:01.594Z,16.02
2017-05-12T02:51:12.976Z,16.08
2017-05-12T02:51:41.341Z,16.16
2017-05-12T02:52:09.656Z,16.1
2017-05-12T02:52:37.900Z,16.13
2017-05-12T02:53:06.152Z,16.17
2017-05-12T02:53:34.456Z,16.09
2017-05-12T02:54:02.828Z,16.16
2017-05-12T02:54:31.143Z,16.05
2017-05-12T02:54:59.571Z,16.13
2017-05-12T02:55:27.818Z,16.21
2017-05-12T02:55:56.003Z,16.16
2017-05-12T02:57:07.473Z,16.05
2017-05-12T02:57:35.844Z,16.06
2017-05-12T02:58:04.261Z,16
2017-05-12T02:58:32.409Z,16.05
2017-05-12T02:59:00.574Z,16.03
2017-05-12T02:59:28.971Z,15.99
2017-05-12T02:59:57.245Z,16.09
2017-05-12T03:00:25.561Z,16.02
2017-05-12T03:00:53.998Z,16.1
2017-05-12T03:01:22.328Z,16.06
2017-05-12T03:01:50.604Z,16.03
2017-05-12T03:03:01.991Z,15.98
2017-05-12T03:03:30.367Z,15.99
2017-05-12T03:03:58.692Z,16.02
2017-05-12T03:04:26.933Z,15.99
2017-05-12T03:04:55.281Z,16.08
2017-05-12T03:05:23.675Z,15.99
2017-05-12T03:05:51.867Z,15.99
2017-05-12T03:06:20.264Z,16.02
2017-05-12T03:06:48.696Z,16.03
2017-05-12T03:07:17.036Z,16.03
2017-05-12T03:07:45.398Z,16
2017-05-12T03:08:56.775Z,16.05
2017-05-12T03:09:25.144Z,15.99
2017-05-12T03:09:53.587Z,15.96
2017-05-12T03:10:21.786Z,16
2017-05-12T03:10:50.133Z,16
2017-05-12T03:11:18.434Z,15.96
2017-05-12T03:11:46.709Z,15.99
2017-05-12T03:12:14.935Z,16.02
2017-05-12T03:12:43.365Z,15.87
2017-05-12T03:13:11.642Z,15.95
2017-05-12T03:13:39.968Z,15.87
2017-05-12T03:14:51.166Z,15.85
2017-05-12T03:15:19.444Z,15.93
2017-05-12T03:15:47.672Z,15.83
2017-05-12T03:16:15.819Z,15.9
2017-05-12T03:16:44.071Z,15.8
2017-05-12T03:17:12.184Z,15.85
2017-05-12T03:17:40.458Z,15.88
2017-05-12T03:18:08.869Z,15.87
2017-05-12T03:18:37.218Z,15.91
2017-05-12T03:19:05.553Z,15.88
2017-05-12T03:19:33.823Z,15.87
2017-05-12T03:20:45.105Z,15.91
2017-05-12T03:21:13.475Z,15.81
2017-05-12T03:21:41.787Z,15.9
2017-05-12T03:22:10.030Z,15.85
2017-05-12T03:22:38.187Z,15.84
2017-05-12T03:23:06.394Z,15.87
2017-05-12T03:23:34.765Z,15.85
2017-05-12T03:24:03.072Z,15.85
2017-05-12T03:24:31.415Z,15.85
2017-05-12T03:24:59.750Z,15.83
2017-05-12T03:25:27.930Z,15.78
2017-05-12T03:26:39.305Z,15.72
2017-05-12T03:27:07.582Z,15.76
2017-05-12T03:27:35.897Z,15.76
2017-05-12T03:28:04.135Z,15.77
2017-05-12T03:28:32.391Z,15.8
2017-05-12T03:29:00.784Z,15.77
2017-05-12T03:29:29.153Z,15.77
2017-05-12T03:29:57.469Z,15.73
2017-05-12T03:30:25.723Z,15.8
2017-05-12T03:30:54.059Z,15.83
2017-05-12T03:31:22.237Z,15.78
2017-05-12T03:32:33.520Z,15.8
2017-05-12T03:33:01.880Z,15.73
2017-05-12T03:33:30.243Z,15.8
2017-05-12T03:33:58.534Z,15.76
2017-05-12T03:34:26.877Z,15.73
2017-05-12T03:34:55.177Z,15.77
2017-05-12T03:35:23.451Z,15.83
2017-05-12T03:35:51.854Z,15.78
2017-05-12T03:36:20.289Z,15.73
2017-05-12T03:36:48.532Z,15.66
2017-05-12T03:37:16.897Z,15.72
2017-05-12T03:38:28.371Z,15.68
2017-05-12T03:38:56.738Z,15.7
2017-05-12T03:39:25.152Z,15.69
2017-05-12T03:39:53.400Z,15.59
2017-05-12T03:40:21.747Z,15.62
2017-05-12T03:40:50.147Z,15.68
2017-05-12T03:41:18.515Z,15.65
2017-05-12T03:41:46.921Z,15.63
2017-05-12T03:42:15.356Z,15.66
2017-05-12T03:42:43.690Z,15.59
2017-05-12T03:43:12.049Z,15.72
2017-05-12T03:44:23.245Z,15.58
2017-05-12T03:44:51.621Z,15.59
2017-05-12T03:45:20.031Z,15.69
2017-05-12T03:45:48.270Z,15.62
2017-05-12T03:46:16.618Z,15.72
2017-05-12T03:46:45.011Z,15.63
2017-05-12T03:47:13.376Z,15.63
2017-05-12T03:47:41.786Z,15.72
2017-05-12T03:48:10.127Z,15.68
2017-05-12T03:48:38.468Z,15.68
2017-05-12T03:49:06.832Z,15.69
2017-05-12T03:50:18.119Z,15.68
2017-05-12T03:50:46.497Z,15.72
2017-05-12T03:51:14.914Z,15.63
2017-05-12T03:51:43.289Z,15.7
2017-05-12T03:52:11.411Z,15.73
2017-05-12T03:52:39.709Z,15.7
2017-05-12T03:53:08.085Z,15.7
2017-05-12T03:53:36.394Z,15.76
2017-05-12T03:54:04.733Z,15.72
2017-05-12T03:54:33.072Z,15.72
2017-05-12T03:55:01.261Z,15.65
2017-05-12T03:56:12.731Z,15.78
2017-05-12T03:56:41.010Z,15.78
2017-05-12T03:57:09.414Z,15.73
2017-05-12T03:57:37.567Z,15.78
2017-05-12T03:58:05.908Z,15.76
2017-05-12T03:58:34.300Z,15.77
2017-05-12T03:59:02.668Z,15.69
2017-05-12T03:59:30.888Z,15.78
2017-05-12T03:59:59.318Z,15.72
2017-05-12T04:00:27.565Z,15.83
2017-05-12T04:00:55.971Z,15.77
2017-05-12T04:02:07.260Z,15.76
2017-05-12T04:02:35.535Z,15.73
2017-05-12T04:03:03.853Z,15.77
2017-05-12T04:03:32.005Z,15.77
2017-05-12T04:04:00.260Z,15.76
2017-05-12T04:04:28.659Z,15.81
2017-05-12T04:04:57.028Z,15.76
2017-05-12T04:05:25.337Z,15.77
2017-05-12T04:05:53.773Z,15.76
2017-05-12T04:06:22.017Z,15.77
2017-05-12T04:06:50.384Z,15.78
2017-05-12T04:08:01.855Z,15.73
2017-05-12T04:08:30.230Z,15.77
2017-05-12T04:08:58.636Z,15.83
2017-05-12T04:09:26.968Z,15.78
2017-05-12T04:09:55.127Z,15.78
2017-05-12T04:10:23.428Z,15.81
2017-05-12T04:10:51.794Z,15.76
2017-05-12T04:11:20.199Z,15.78
2017-05-12T04:11:48.634Z,15.8
2017-05-12T04:12:16.970Z,15.8
2017-05-12T04:12:45.233Z,15.83
2017-05-12T04:13:56.707Z,15.9
2017-05-12T04:14:24.982Z,15.84
2017-05-12T04:14:53.390Z,15.84
2017-05-12T04:15:21.723Z,15.76
2017-05-12T04:15:49.971Z,15.9
2017-05-12T04:16:18.269Z,15.84
2017-05-12T04:16:46.637Z,15.81
2017-05-12T04:17:15.042Z,15.8
2017-05-12T04:17:43.387Z,15.88
2017-05-12T04:18:11.722Z,15.87
2017-05-12T04:18:40.004Z,15.84
2017-05-12T04:19:51.379Z,15.87
2017-05-12T04:20:19.747Z,15.84
2017-05-12T04:20:48.065Z,15.84
2017-05-12T04:21:16.397Z,15.9
2017-05-12T04:21:44.736Z,15.81
2017-05-12T04:22:12.943Z,15.85
2017-05-12T04:22:41.315Z,15.85
2017-05-12T04:23:09.721Z,15.83
2017-05-12T04:23:38.154Z,15.83
2017-05-12T04:24:06.301Z,15.87
2017-05-12T04:24:34.669Z,15.96
2017-05-12T04:25:46.087Z,15.93
2017-05-12T04:26:14.415Z,15.91
2017-05-12T04:26:42.820Z,15.93
2017-05-12T04:27:11.061Z,15.9
2017-05-12T04:27:39.401Z,15.9
2017-05-12T04:28:07.516Z,15.88
2017-05-12T04:28:35.892Z,15.96
2017-05-12T04:29:04.205Z,15.93
2017-05-12T04:29:32.548Z,15.91
2017-05-12T04:30:00.791Z,15.95
2017-05-12T04:30:29.157Z,15.93
2017-05-12T04:31:40.630Z,15.93
2017-05-12T04:32:08.990Z,15.9
2017-05-12T04:32:37.398Z,15.85
2017-05-12T04:33:05.731Z,15.85
2017-05-12T04:33:33.888Z,15.83
2017-05-12T04:34:02.191Z,15.8
2017-05-12T04:34:30.465Z,15.83
2017-05-12T04:34:58.503Z,15.9
2017-05-12T04:35:26.748Z,15.84
2017-05-12T04:35:54.905Z,15.91
2017-05-12T04:36:23.082Z,15.91
2017-05-12T04:37:34.553Z,15.81
2017-05-12T04:38:02.927Z,15.87
2017-05-12T04:38:31.333Z,15.78
2017-05-12T04:38:59.585Z,15.78
2017-05-12T04:39:27.843Z,15.83
2017-05-12T04:39:56.144Z,15.81
2017-05-12T04:40:24.326Z,15.9
2017-05-12T04:40:52.727Z,15.78
2017-05-12T04:41:21.161Z,15.88
2017-05-12T04:41:49.402Z,15.88
2017-05-12T04:42:17.671Z,15.84
2017-05-12T04:43:29.142Z,15.84
2017-05-12T04:43:57.332Z,15.84
2017-05-12T04:44:25.644Z,15.9
2017-05-12T04:44:53.977Z,15.93
2017-05-12T04:45:22.321Z,15.98
2017-05-12T04:45:50.623Z,15.95
2017-05-12T04:46:18.991Z,15.91
2017-05-12T04:46:47.297Z,15.88
2017-05-12T04:47:15.731Z,15.95
2017-05-12T04:47:43.968Z,15.91
2017-05-12T04:48:12.334Z,15.98
2017-05-12T04:49:23.808Z,15.93
2017-05-12T04:49:52.081Z,16.03
2017-05-12T04:50:20.489Z,15.96
2017-05-12T04:50:48.735Z,15.98
2017-05-12T04:51:16.985Z,15.99
2017-05-12T04:51:45.380Z,16.03
2017-05-12T04:52:13.661Z,15.99
2017-05-12T04:52:42.062Z,15.98
2017-05-12T04:53:10.496Z,16
2017-05-12T04:53:38.736Z,15.96
2017-05-12T04:54:07.001Z,15.99
2017-05-12T04:55:18.381Z,16.03
2017-05-12T04:55:46.658Z,15.98
2017-05-12T04:56:15.066Z,16.09
2017-05-12T04:56:43.312Z,16.08
2017-05-12T04:57:11.550Z,16.14
2017-05-12T04:57:39.942Z,16.02
2017-05-12T04:58:08.125Z,16.13
2017-05-12T04:58:36.432Z,16.03
2017-05-12T04:59:04.775Z,16.13
2017-05-12T04:59:32.825Z,16.09
2017-05-12T05:00:01.007Z,16.13
2017-05-12T05:01:12.380Z,16.14
2017-05-12T05:01:40.567Z,16.13
2017-05-12T05:02:08.971Z,16.1
2017-05-12T05:02:37.304Z,16.08
2017-05-12T05:03:05.556Z,16.08
2017-05-12T05:03:33.946Z,16.09
2017-05-12T05:04:02.320Z,16.09
2017-05-12T05:04:30.723Z,16.06
2017-05-12T05:04:59.159Z,16.08
2017-05-12T05:05:27.494Z,16.1
2017-05-12T05:05:55.858Z,16.13
2017-05-12T05:07:07.143Z,16.09
2017-05-12T05:07:35.419Z,16.17
2017-05-12T05:08:03.730Z,16.16
2017-05-12T05:08:31.875Z,16.1
2017-05-12T05:09:00.030Z,16.09
2017-05-12T05:09:28.327Z,16.05
2017-05-12T05:09:56.693Z,16.13
2017-05-12T05:10:24.725Z,16.03
2017-05-12T05:10:52.972Z,16.05
2017-05-12T05:11:21.207Z,15.98
2017-05-12T05:11:49.570Z,16
2017-05-12T05:13:00.941Z,16.08
2017-05-12T05:13:29.306Z,16.06
2017-05-12T05:13:57.524Z,15.99
2017-05-12T05:14:25.767Z,16.1
2017-05-12T05:14:53.928Z,16.03
2017-05-12T05:15:22.322Z,16.13
2017-05-12T05:15:50.597Z,16.13
2017-05-12T05:16:18.807Z,16.13
2017-05-12T05:16:47.050Z,16.13
2017-05-12T05:17:15.284Z,16.08
2017-05-12T05:17:43.559Z,16.14
2017-05-12T05:18:54.934Z,16.14
2017-05-12T05:19:23.296Z,16.16
2017-05-12T05:19:51.515Z,16.13
2017-05-12T05:20:19.571Z,16.16
2017-05-12T05:20:47.913Z,16.09
2017-05-12T05:21:16.118Z,16.13
2017-05-12T05:21:44.390Z,16.16
2017-05-12T05:22:12.792Z,16.09
2017-05-12T05:22:41.128Z,16.14
2017-05-12T05:23:09.461Z,16.16
2017-05-12T05:23:37.738Z,16.13
2017-05-12T05:24:49.118Z,16.1
2017-05-12T05:25:17.483Z,16.1
2017-05-12T05:25:45.888Z,16.17
2017-05-12T05:26:14.129Z,16.1
2017-05-12T05:26:42.380Z,16.05
2017-05-12T05:27:10.769Z,16.16
2017-05-12T05:27:39.136Z,16.1
2017-05-12T05:28:07.443Z,16.14
2017-05-12T05:28:35.877Z,16.1
2017-05-12T05:29:04.025Z,16.09
2017-05-12T05:29:32.394Z,16.16
2017-05-12T05:30:43.861Z,16.17
2017-05-12T05:31:12.132Z,16.1
2017-05-12T05:31:40.537Z,16.14
2017-05-12T05:32:08.690Z,16.18
2017-05-12T05:32:36.935Z,16.13
2017-05-12T05:33:05.324Z,16.13
2017-05-12T05:33:33.697Z,16.17
2017-05-12T05:34:02.102Z,16.16
2017-05-12T05:34:30.439Z,16.17
2017-05-12T05:34:58.595Z,16.1
2017-05-12T05:35:26.859Z,16.21
2017-05-12T05:36:38.231Z,16.09
2017-05-12T05:37:06.410Z,16.14
2017-05-12T05:37:34.818Z,16.1
2017-05-12T05:38:03.057Z,16.1
2017-05-12T05:38:31.400Z,16.17
2017-05-12T05:38:59.606Z,16.1
2017-05-12T05:39:27.878Z,16.16
2017-05-12T05:39:56.188Z,16.13
2017-05-12T05:40:24.622Z,16.14
2017-05-12T05:40:52.956Z,16.13
2017-05-12T05:41:21.227Z,16.09
2017-05-12T05:42:32.598Z,16.1
2017-05-12T05:43:00.965Z,16.18
2017-05-12T05:43:29.181Z,16.17
2017-05-12T05:43:57.430Z,16.14
2017-05-12T05:44:25.679Z,16.09
2017-05-12T05:44:53.976Z,16.16
2017-05-12T05:45:22.250Z,16.13
2017-05-12T05:45:50.650Z,16.17
2017-05-12T05:46:18.992Z,16.13
2017-05-12T05:46:47.325Z,16.17
2017-05-12T05:47:15.693Z,16.1
2017-05-12T05:48:27.065Z,16.1
2017-05-12T05:48:55.248Z,16.13
2017-05-12T05:49:23.558Z,16.17
2017-05-12T05:49:51.811Z,16.16
2017-05-12T05:50:19.968Z,16.09
2017-05-12T05:50:48.263Z,16.13
2017-05-12T05:51:16.631Z,16.13
2017-05-12T05:51:44.938Z,16.16
2017-05-12T05:52:13.182Z,16.08
2017-05-12T05:52:41.516Z,16
2017-05-12T05:53:09.883Z,16.08
2017-05-12T05:54:27.525Z,16.14
2017-05-12T05:54:55.898Z,16.14
2017-05-12T05:55:24.210Z,16.1
2017-05-12T05:55:52.450Z,16.02
2017-05-12T05:56:20.608Z,15.99
2017-05-12T05:56:48.727Z,16.03
2017-05-12T05:57:17.094Z,16.08
2017-05-12T05:57:45.495Z,16.03
2017-05-12T05:58:13.835Z,16
2017-05-12T05:58:42.621Z,16.03
2017-05-12T05:59:10.801Z,15.96
2017-05-12T06:00:22.180Z,15.98
2017-05-12T06:00:50.365Z,16
2017-05-12T06:01:18.676Z,15.95
2017-05-12T06:01:46.917Z,16.03
2017-05-12T06:02:15.169Z,16.05
2017-05-12T06:02:43.373Z,16.05
2017-05-12T06:03:11.649Z,16
2017-05-12T06:03:40.052Z,16.06
2017-05-12T06:04:08.477Z,15.98
2017-05-12T06:04:36.628Z,16.02
2017-05-12T06:05:04.900Z,15.99
2017-05-12T06:06:16.276Z,16.05
2017-05-12T06:06:44.551Z,16.03
2017-05-12T06:07:12.953Z,16.05
2017-05-12T06:07:41.291Z,16.02
2017-05-12T06:08:09.533Z,16.05
2017-05-12T06:08:37.831Z,16.05
2017-05-12T06:09:06.234Z,16.05
2017-05-12T06:09:34.605Z,16.09
2017-05-12T06:10:03.033Z,16.1
2017-05-12T06:10:31.272Z,16.09
2017-05-12T06:10:59.451Z,16.17
2017-05-12T06:12:10.861Z,16.16
2017-05-12T06:12:39.103Z,16.09
2017-05-12T06:13:07.416Z,16.14
2017-05-12T06:13:35.754Z,16.05
2017-05-12T06:14:03.907Z,16.16
2017-05-12T06:14:32.020Z,16.13
2017-05-12T06:15:00.385Z,16.03
2017-05-12T06:15:28.786Z,16.03
2017-05-12T06:15:57.121Z,16.09
2017-05-12T06:16:25.362Z,16.14
2017-05-12T06:16:53.634Z,16.03
2017-05-12T06:18:05.004Z,16.09
2017-05-12T06:18:33.275Z,16
2017-05-12T06:19:01.503Z,15.96
2017-05-12T06:19:29.838Z,16.03
2017-05-12T06:19:58.180Z,16.02
2017-05-12T06:20:26.195Z,16
2017-05-12T06:20:54.562Z,16.02
2017-05-12T06:21:22.771Z,16.03
2017-05-12T06:21:50.925Z,16
2017-05-12T06:22:18.887Z,15.99
2017-05-12T06:22:46.971Z,15.98
2017-05-12T06:23:58.439Z,16.02
2017-05-12T06:24:26.804Z,16
2017-05-12T06:24:55.211Z,16.05
2017-05-12T06:25:23.541Z,15.99
2017-05-12T06:25:51.877Z,15.98
2017-05-12T06:26:20.265Z,15.88
2017-05-12T06:26:48.540Z,15.93
2017-05-12T06:27:16.864Z,15.96
2017-05-12T06:27:45.198Z,15.9
2017-05-12T06:28:13.532Z,15.99
2017-05-12T06:28:41.710Z,15.95
2017-05-12T06:29:52.998Z,15.9
2017-05-12T06:30:21.090Z,15.99
2017-05-12T06:30:49.499Z,15.99
2017-05-12T06:31:17.647Z,15.98
2017-05-12T06:31:45.991Z,15.91
2017-05-12T06:32:14.106Z,15.99
2017-05-12T06:32:42.479Z,15.93
2017-05-12T06:33:10.878Z,15.98
2017-05-12T06:33:39.225Z,15.91
2017-05-12T06:34:07.372Z,15.9
2017-05-12T06:34:35.732Z,15.9
2017-05-12T06:35:47.203Z,15.93
2017-05-12T06:36:15.467Z,15.88
2017-05-12T06:36:43.875Z,15.96
2017-05-12T06:37:12.198Z,15.96
2017-05-12T06:37:40.264Z,15.9
2017-05-12T06:38:08.556Z,15.96
2017-05-12T06:38:36.798Z,15.85
2017-05-12T06:39:05.201Z,15.95
2017-05-12T06:39:33.636Z,15.95
2017-05-12T06:40:01.879Z,15.91
2017-05-12T06:40:30.232Z,15.93
2017-05-12T06:41:41.514Z,15.9
2017-05-12T06:42:09.882Z,15.9
2017-05-12T06:42:38.287Z,15.95
2017-05-12T06:43:06.528Z,15.9
2017-05-12T06:43:34.866Z,15.96
2017-05-12T06:44:03.074Z,15.9
2017-05-12T06:44:31.443Z,15.91
2017-05-12T06:44:59.850Z,15.95
2017-05-12T06:45:28.192Z,15.85
2017-05-12T06:45:56.432Z,15.95
2017-05-12T06:46:24.701Z,15.95
2017-05-12T06:47:36.083Z,15.93
2017-05-12T06:48:04.451Z,15.95
2017-05-12T06:48:32.765Z,15.93
2017-05-12T06:49:01.003Z,15.91
2017-05-12T06:49:29.163Z,15.91
2017-05-12T06:49:57.455Z,15.93
2017-05-12T06:50:26.372Z,15.95
2017-05-12T06:50:54.587Z,15.85
2017-05-12T06:51:22.926Z,15.96
2017-05-12T06:51:51.068Z,15.93
2017-05-12T06:52:19.147Z,15.88
2017-05-12T06:53:30.611Z,15.9
2017-05-12T06:53:58.979Z,15.83
2017-05-12T06:54:27.289Z,15.77
2017-05-12T06:54:55.527Z,15.85
2017-05-12T06:55:23.872Z,15.85
2017-05-12T06:55:52.077Z,15.83
2017-05-12T06:56:20.446Z,15.84
2017-05-12T06:56:48.657Z,15.76